createdAt,value
2019-02-09T00:02:13.960Z,9.07
2019-02-09T00:04:45.101Z,7.93
2019-02-09T00:07:16.366Z,9.27
2019-02-09T00:09:47.477Z,5.43
2019-02-09T00:12:18.757Z,7.13
2019-02-09T00:14:49.523Z,6.53
2019-02-09T00:17:20.599Z,5.53
2019-02-09T00:19:51.346Z,6.67
2019-02-09T00:22:22.326Z,7.03
2019-02-09T00:24:53.185Z,5.90
2019-02-09T00:27:24.121Z,6.87
2019-02-09T00:29:55.177Z,9.03
2019-02-09T00:32:26.140Z,7.80
2019-02-09T00:34:56.897Z,6.03
2019-02-09T00:37:27.635Z,5.37
2019-02-09T00:39:58.902Z,5.80
2019-02-09T00:42:29.903Z,5.33
2019-02-09T00:45:00.921Z,8.30
2019-02-09T00:47:31.890Z,5.70
2019-02-09T00:50:02.953Z,5.60
2019-02-09T00:52:34.019Z,10.50
2019-02-09T00:55:06.150Z,6.07
2019-02-09T00:57:36.973Z,5.07
2019-02-09T01:00:13.879Z,4.47
2019-02-09T01:02:45.149Z,6.47
2019-02-09T01:05:17.207Z,5.33
2019-02-09T01:07:48.271Z,4.67
2019-02-09T01:10:19.383Z,5.87
2019-02-09T01:12:50.397Z,5.07
2019-02-09T01:15:21.295Z,3.90
2019-02-09T01:17:52.189Z,6.07
2019-02-09T01:20:23.713Z,5.77
2019-02-09T01:22:54.944Z,4.87
2019-02-09T01:25:25.855Z,5.13
2019-02-09T01:27:56.750Z,4.03
2019-02-09T01:30:28.051Z,5.73
2019-02-09T01:32:59.169Z,3.97
2019-02-09T01:35:30.224Z,4.57
2019-02-09T01:38:01.062Z,4.23
2019-02-09T01:40:32.220Z,5.13
2019-02-09T01:43:02.967Z,5.37
2019-02-09T01:45:33.964Z,4.43
2019-02-09T01:48:05.273Z,4.70
2019-02-09T01:50:36.644Z,5.70
2019-02-09T01:53:07.645Z,4.37
2019-02-09T01:55:39.130Z,3.13
2019-02-09T01:58:10.043Z,3.80
2019-02-09T02:00:41.865Z,5.67
2019-02-09T02:03:12.933Z,4.67
2019-02-09T02:05:43.874Z,4.60
2019-02-09T02:08:17.259Z,6.30
2019-02-09T02:10:48.263Z,5.60
2019-02-09T02:13:19.254Z,4.77
2019-02-09T02:15:50.245Z,5.70
2019-02-09T02:18:21.073Z,5.97
2019-02-09T02:20:51.843Z,12.10
2019-02-09T02:23:22.588Z,8.50
2019-02-09T02:25:54.184Z,5.07
2019-02-09T02:28:25.005Z,4.43
2019-02-09T02:30:55.766Z,8.23
2019-02-09T02:33:26.624Z,6.63
2019-02-09T02:35:57.407Z,3.10
2019-02-09T02:38:28.162Z,6.37
2019-02-09T02:40:59.328Z,5.70
2019-02-09T02:43:30.389Z,7.93
2019-02-09T02:46:01.332Z,6.33
2019-02-09T02:48:33.195Z,8.23
2019-02-09T02:51:03.958Z,8.23
2019-02-09T02:53:35.018Z,6.13
2019-02-09T02:56:06.500Z,6.13
2019-02-09T02:58:37.260Z,4.93
2019-02-09T03:01:08.282Z,7.47
2019-02-09T03:03:39.828Z,6.50
2019-02-09T03:06:11.184Z,6.40
2019-02-09T03:08:42.718Z,7.37
2019-02-09T03:11:13.795Z,5.97
2019-02-09T03:13:45.158Z,6.40
2019-02-09T03:16:15.925Z,6.97
2019-02-09T03:18:46.917Z,5.97
2019-02-09T03:21:17.679Z,6.37
2019-02-09T03:23:55.077Z,6.00
2019-02-09T03:26:26.653Z,5.33
2019-02-09T03:28:57.975Z,7.33
2019-02-09T03:31:29.705Z,7.63
2019-02-09T03:34:00.991Z,5.33
2019-02-09T03:36:31.755Z,8.73
2019-02-09T03:39:06.174Z,6.90
2019-02-09T03:41:40.620Z,4.90
2019-02-09T03:44:11.590Z,5.43
2019-02-09T03:46:43.082Z,4.97
2019-02-09T03:49:14.054Z,8.47
2019-02-09T03:51:45.263Z,8.33
2019-02-09T03:54:16.383Z,5.57
2019-02-09T03:56:47.543Z,10.87
2019-02-09T03:59:19.144Z,5.10
2019-02-09T04:01:50.725Z,4.23
2019-02-09T04:04:21.715Z,5.40
2019-02-09T04:06:52.655Z,4.93
2019-02-09T04:09:23.412Z,7.70
2019-02-09T04:11:54.353Z,7.00
2019-02-09T04:14:25.417Z,5.80
2019-02-09T04:16:56.573Z,5.07
2019-02-09T04:19:27.573Z,6.73
2019-02-09T04:21:58.559Z,4.53
2019-02-09T04:24:29.549Z,4.80
2019-02-09T04:27:00.322Z,5.10
2019-02-09T04:29:31.140Z,4.73
2019-02-09T04:32:01.970Z,5.40
2019-02-09T04:34:33.047Z,7.57
2019-02-09T04:37:04.230Z,6.30
2019-02-09T04:39:34.978Z,5.80
2019-02-09T04:42:06.328Z,5.37
2019-02-09T04:44:37.077Z,5.77
2019-02-09T04:47:08.398Z,4.43
2019-02-09T04:49:39.360Z,4.03
2019-02-09T04:52:10.362Z,4.37
2019-02-09T04:54:41.109Z,5.43
2019-02-09T04:57:12.256Z,4.93
2019-02-09T04:59:43.366Z,3.67
2019-02-09T05:02:14.113Z,3.97
2019-02-09T05:04:44.968Z,5.87
2019-02-09T05:07:16.085Z,4.87
2019-02-09T05:09:46.833Z,3.93
2019-02-09T05:12:17.665Z,3.50
2019-02-09T05:14:48.649Z,7.63
2019-02-09T05:17:19.393Z,4.27
2019-02-09T05:19:50.373Z,6.20
2019-02-09T05:22:21.459Z,3.83
2019-02-09T05:24:53.566Z,4.63
2019-02-09T05:27:24.427Z,5.40
2019-02-09T05:29:55.522Z,5.23
2019-02-09T05:32:26.357Z,4.70
2019-02-09T05:34:57.339Z,7.77
2019-02-09T05:37:28.335Z,6.87
2019-02-09T05:39:59.243Z,8.27
2019-02-09T05:42:30.246Z,5.23
2019-02-09T05:45:01.084Z,6.03
2019-02-09T05:47:31.847Z,4.30
2019-02-09T05:50:03.041Z,4.67
2019-02-09T05:52:33.793Z,4.87
2019-02-09T05:55:05.215Z,4.23
2019-02-09T05:57:36.222Z,4.23
2019-02-09T06:00:09.739Z,6.07
2019-02-09T06:02:40.486Z,4.93
2019-02-09T06:05:11.562Z,3.77
2019-02-09T06:07:42.422Z,6.47
2019-02-09T06:10:14.745Z,5.20
2019-02-09T06:12:45.715Z,5.73
2019-02-09T06:15:17.233Z,6.87
2019-02-09T06:17:48.053Z,4.37
2019-02-09T06:20:20.979Z,3.90
2019-02-09T06:22:51.793Z,6.37
2019-02-09T06:25:22.886Z,3.43
2019-02-09T06:27:53.924Z,5.03
2019-02-09T06:30:26.615Z,5.17
2019-02-09T06:32:57.495Z,3.47
2019-02-09T06:35:28.669Z,5.23
2019-02-09T06:37:59.740Z,3.77
2019-02-09T06:40:30.892Z,5.37
2019-02-09T06:43:01.642Z,5.50
2019-02-09T06:45:32.414Z,4.80
2019-02-09T06:48:20.425Z,5.50
2019-02-09T06:50:52.504Z,5.10
2019-02-09T06:53:23.559Z,4.90
2019-02-09T06:55:54.896Z,4.60
2019-02-09T06:58:26.199Z,3.70
2019-02-09T07:00:56.954Z,3.47
2019-02-09T07:03:28.082Z,5.93
2019-02-09T07:05:58.998Z,3.97
2019-02-09T07:08:30.077Z,4.43
2019-02-09T07:11:01.498Z,3.57
2019-02-09T07:13:32.274Z,5.07
2019-02-09T07:16:03.027Z,5.00
2019-02-09T07:18:40.350Z,3.97
2019-02-09T07:21:11.390Z,3.83
2019-02-09T07:23:42.634Z,5.37
2019-02-09T07:26:13.778Z,4.17
2019-02-09T07:28:44.607Z,5.10
2019-02-09T07:31:15.805Z,7.13
2019-02-09T07:33:46.730Z,6.07
2019-02-09T07:36:17.606Z,4.10
2019-02-09T07:38:48.795Z,5.47
2019-02-09T07:41:20.031Z,4.10
2019-02-09T07:43:51.260Z,5.07
2019-02-09T07:46:22.081Z,6.10
2019-02-09T07:48:53.383Z,4.23
2019-02-09T07:51:24.145Z,8.70
2019-02-09T07:53:55.196Z,7.27
2019-02-09T07:56:26.485Z,8.60
2019-02-09T07:58:57.296Z,6.40
2019-02-09T08:01:28.166Z,6.50
2019-02-09T08:03:58.982Z,5.03
2019-02-09T08:06:30.068Z,9.27
2019-02-09T08:09:00.839Z,10.13
2019-02-09T08:11:33.433Z,6.33
2019-02-09T08:14:04.285Z,8.67
2019-02-09T08:16:35.354Z,7.63
2019-02-09T08:19:06.217Z,6.13
2019-02-09T08:21:37.053Z,6.57
2019-02-09T08:24:07.894Z,5.73
2019-02-09T08:26:38.643Z,4.77
2019-02-09T08:29:09.789Z,5.70
2019-02-09T08:31:40.697Z,4.60
2019-02-09T08:34:11.469Z,6.90
2019-02-09T08:36:42.342Z,4.67
2019-02-09T08:39:13.305Z,5.13
2019-02-09T08:41:44.059Z,4.13
2019-02-09T08:44:14.921Z,7.80
2019-02-09T08:46:45.758Z,6.63
2019-02-09T08:49:16.605Z,4.07
2019-02-09T08:51:47.653Z,6.30
2019-02-09T08:54:19.151Z,13.17
2019-02-09T08:56:50.141Z,3.47
2019-02-09T08:59:20.954Z,7.00
2019-02-09T09:01:52.049Z,4.90
2019-02-09T09:04:23.221Z,6.50
2019-02-09T09:06:54.113Z,6.33
2019-02-09T09:09:25.176Z,5.30
2019-02-09T09:11:56.089Z,8.07
2019-02-09T09:14:27.142Z,6.87
2019-02-09T09:16:58.238Z,6.60
2019-02-09T09:19:29.069Z,9.10
2019-02-09T09:21:59.963Z,7.37
2019-02-09T09:24:31.170Z,9.43
2019-02-09T09:27:02.113Z,7.43
2019-02-09T09:29:32.880Z,7.20
2019-02-09T09:32:03.646Z,7.93
2019-02-09T09:34:34.778Z,7.53
2019-02-09T09:37:05.785Z,7.07
2019-02-09T09:39:37.301Z,6.47
2019-02-09T09:42:08.528Z,9.03
2019-02-09T09:44:39.524Z,7.30
2019-02-09T09:47:10.266Z,9.53
2019-02-09T09:49:41.283Z,8.63
2019-02-09T09:52:12.506Z,10.67
2019-02-09T09:54:43.751Z,9.40
2019-02-09T09:57:14.722Z,9.30
2019-02-09T09:59:45.735Z,8.13
2019-02-09T10:02:16.568Z,9.40
2019-02-09T10:04:47.560Z,6.37
2019-02-09T10:07:18.319Z,7.17
2019-02-09T10:09:49.578Z,6.77
2019-02-09T10:12:20.336Z,10.13
2019-02-09T10:14:51.595Z,8.67
2019-02-09T10:17:22.584Z,9.17
2019-02-09T10:19:53.342Z,10.43
2019-02-09T10:22:24.346Z,8.47
2019-02-09T10:24:55.111Z,7.43
2019-02-09T10:27:26.195Z,11.17
2019-02-09T10:29:57.228Z,8.80
2019-02-09T10:32:28.338Z,14.67
2019-02-09T10:34:59.483Z,14.10
2019-02-09T10:37:30.337Z,9.97
2019-02-09T10:40:01.595Z,9.23
2019-02-09T10:42:32.349Z,11.47
2019-02-09T10:45:03.505Z,11.67
2019-02-09T10:47:34.638Z,10.00
2019-02-09T10:50:07.108Z,9.77
2019-02-09T10:52:38.082Z,5.70
2019-02-09T10:55:09.542Z,8.67
2019-02-09T10:57:40.442Z,8.43
2019-02-09T11:00:17.601Z,10.07
2019-02-09T11:02:52.145Z,8.27
2019-02-09T11:05:21.204Z,7.70
2019-02-09T11:07:52.162Z,8.80
2019-02-09T11:10:23.282Z,7.83
2019-02-09T11:12:54.409Z,8.27
2019-02-09T11:15:25.743Z,7.77
2019-02-09T11:17:56.561Z,9.33
2019-02-09T11:20:27.317Z,7.17
2019-02-09T11:22:58.138Z,7.30
2019-02-09T11:25:29.436Z,6.63
2019-02-09T11:28:00.510Z,8.07
2019-02-09T11:30:31.436Z,7.07
2019-02-09T11:33:02.744Z,9.10
2019-02-09T11:35:33.931Z,6.83
2019-02-09T11:38:05.468Z,7.13
2019-02-09T11:40:36.815Z,8.20
2019-02-09T11:43:07.774Z,10.47
2019-02-09T11:45:38.897Z,8.77
2019-02-09T11:48:09.876Z,7.23
2019-02-09T11:50:40.887Z,10.80
2019-02-09T11:53:11.940Z,6.70
2019-02-09T11:55:42.706Z,6.27
2019-02-09T11:58:13.744Z,9.43
2019-02-09T12:00:47.494Z,7.07
2019-02-09T12:03:18.369Z,6.73
2019-02-09T12:05:49.154Z,6.37
2019-02-09T12:08:20.002Z,8.90
2019-02-09T12:10:50.938Z,6.53
2019-02-09T12:13:21.731Z,7.30
2019-02-09T12:15:52.679Z,7.43
2019-02-09T12:18:23.441Z,5.37
2019-02-09T12:20:54.452Z,8.93
2019-02-09T12:23:25.432Z,7.83
2019-02-09T12:25:56.284Z,9.60
2019-02-09T12:28:27.512Z,9.93
2019-02-09T12:30:58.666Z,7.40
2019-02-09T12:33:29.725Z,8.60
2019-02-09T12:36:00.560Z,8.07
2019-02-09T12:38:31.631Z,8.67
2019-02-09T12:41:02.519Z,9.07
2019-02-09T12:43:33.266Z,9.60
2019-02-09T12:46:04.458Z,7.37
2019-02-09T12:48:35.286Z,7.83
2019-02-09T12:51:06.054Z,6.80
2019-02-09T12:53:36.811Z,6.13
2019-02-09T12:56:08.119Z,12.10
2019-02-09T12:58:39.127Z,14.17
2019-02-09T13:01:09.971Z,18.73
2019-02-09T13:03:40.950Z,20.30
2019-02-09T13:06:11.719Z,12.57
2019-02-09T13:08:42.556Z,12.43
2019-02-09T13:11:13.320Z,16.10
2019-02-09T13:13:44.071Z,12.73
2019-02-09T13:16:15.174Z,11.97
2019-02-09T13:18:46.229Z,12.00
2019-02-09T13:21:17.066Z,7.90
2019-02-09T13:23:48.042Z,8.37
2019-02-09T13:26:19.086Z,4.37
2019-02-09T13:28:50.347Z,6.87
2019-02-09T13:31:21.180Z,10.07
2019-02-09T13:33:51.955Z,27.07
2019-02-09T13:36:23.016Z,11.70
2019-02-09T13:38:53.881Z,65.07
2019-02-09T13:41:24.910Z,32.60
2019-02-09T13:43:56.036Z,30.93
2019-02-09T13:46:27.027Z,14.00
2019-02-09T13:48:58.791Z,11.77
2019-02-09T13:51:29.794Z,11.30
2019-02-09T13:54:01.549Z,15.73
2019-02-09T13:56:32.620Z,6.67
2019-02-09T13:59:03.491Z,9.70
2019-02-09T14:01:34.678Z,9.97
2019-02-09T14:04:06.169Z,7.53
2019-02-09T14:06:37.166Z,8.63
2019-02-09T14:09:08.709Z,8.67
2019-02-09T14:11:41.333Z,8.57
2019-02-09T14:14:12.317Z,8.77
2019-02-09T14:16:43.156Z,10.87
2019-02-09T14:19:13.995Z,7.40
2019-02-09T14:21:45.797Z,7.53
2019-02-09T14:24:17.089Z,7.77
2019-02-09T14:26:48.070Z,7.67
2019-02-09T14:29:19.058Z,5.57
2019-02-09T14:31:50.141Z,9.10
2019-02-09T14:34:21.144Z,6.40
2019-02-09T14:36:53.372Z,6.10
2019-02-09T14:39:24.494Z,6.73
2019-02-09T14:41:55.373Z,6.83
2019-02-09T14:44:26.478Z,6.73
2019-02-09T14:46:57.626Z,4.27
2019-02-09T14:49:28.418Z,8.90
2019-02-09T14:52:00.009Z,8.17
2019-02-09T14:54:31.052Z,7.73
2019-02-09T14:57:02.099Z,8.63
2019-02-09T14:59:32.848Z,6.17
2019-02-09T15:02:04.079Z,7.37
2019-02-09T15:04:35.056Z,7.37
2019-02-09T15:07:05.879Z,6.23
2019-02-09T15:09:37.857Z,6.83
2019-02-09T15:12:09.130Z,7.13
2019-02-09T15:14:40.033Z,5.83
2019-02-09T15:17:11.128Z,5.67
2019-02-09T15:19:42.207Z,9.70
2019-02-09T15:22:13.104Z,7.20
2019-02-09T15:24:43.942Z,8.40
2019-02-09T15:27:14.754Z,8.30
2019-02-09T15:29:45.949Z,7.97
2019-02-09T15:32:16.815Z,11.30
2019-02-09T15:34:47.765Z,12.30
2019-02-09T15:37:19.189Z,7.47
2019-02-09T15:39:50.039Z,11.13
2019-02-09T15:42:21.049Z,7.20
2019-02-09T15:44:51.989Z,9.93
2019-02-09T15:47:22.969Z,10.00
2019-02-09T15:49:53.744Z,12.67
2019-02-09T15:52:24.510Z,14.83
2019-02-09T15:54:55.297Z,10.40
2019-02-09T15:57:26.125Z,8.97
2019-02-09T15:59:57.335Z,8.17
2019-02-09T16:02:28.407Z,9.23
2019-02-09T16:04:59.162Z,11.20
2019-02-09T16:07:30.387Z,9.23
2019-02-09T16:10:01.155Z,9.97
2019-02-09T16:12:32.879Z,10.67
2019-02-09T16:15:04.314Z,7.17
2019-02-09T16:17:35.489Z,9.80
2019-02-09T16:20:07.234Z,8.83
2019-02-09T16:22:38.198Z,9.80
2019-02-09T16:25:09.860Z,7.40
2019-02-09T16:27:41.261Z,8.73
2019-02-09T16:30:18.703Z,8.40
2019-02-09T16:32:49.797Z,13.67
2019-02-09T16:35:21.499Z,11.73
2019-02-09T16:37:52.570Z,11.13
2019-02-09T16:40:25.370Z,15.87
2019-02-09T16:42:56.193Z,9.83
2019-02-09T16:45:30.096Z,12.33
2019-02-09T16:48:01.460Z,9.60
2019-02-09T16:50:32.475Z,11.03
2019-02-09T16:53:03.391Z,10.30
2019-02-09T16:55:34.530Z,7.40
2019-02-09T16:58:05.874Z,11.67
2019-02-09T17:00:39.055Z,8.20
2019-02-09T17:03:10.584Z,11.63
2019-02-09T17:05:42.893Z,10.00
2019-02-09T17:08:15.187Z,7.30
2019-02-09T17:10:46.945Z,9.43
2019-02-09T17:13:18.090Z,10.17
2019-02-09T17:15:50.068Z,10.97
2019-02-09T17:18:20.954Z,9.10
2019-02-09T17:20:52.967Z,13.40
2019-02-09T17:23:23.953Z,14.93
2019-02-09T17:25:55.116Z,15.73
2019-02-09T17:28:26.255Z,9.77
2019-02-09T17:30:57.781Z,13.80
2019-02-09T17:33:29.871Z,15.33
2019-02-09T17:36:00.741Z,17.03
2019-02-09T17:38:31.499Z,20.93
2019-02-09T17:41:02.669Z,18.10
2019-02-09T17:43:33.467Z,13.83
2019-02-09T17:46:14.417Z,11.23
2019-02-09T17:48:45.339Z,12.10
2019-02-09T17:51:16.698Z,15.90
2019-02-09T17:53:47.467Z,10.10
2019-02-09T17:56:18.245Z,16.57
2019-02-09T17:58:49.127Z,17.47
2019-02-09T18:01:20.145Z,16.03
2019-02-09T18:03:50.969Z,13.07
2019-02-09T18:06:21.851Z,12.07
2019-02-09T18:08:52.900Z,17.70
2019-02-09T18:11:23.904Z,10.93
2019-02-09T18:13:54.725Z,14.90
2019-02-09T18:16:25.803Z,11.87
2019-02-09T18:18:56.795Z,14.40
2019-02-09T18:21:27.920Z,11.57
2019-02-09T18:23:59.246Z,16.07
2019-02-09T18:26:30.023Z,11.10
2019-02-09T18:29:01.062Z,15.40
2019-02-09T18:31:32.131Z,14.57
2019-02-09T18:34:03.122Z,10.57
2019-02-09T18:36:34.117Z,11.50
2019-02-09T18:39:10.040Z,13.13
2019-02-09T18:41:40.956Z,9.13
2019-02-09T18:44:11.960Z,11.67
2019-02-09T18:46:43.125Z,15.13
2019-02-09T18:49:13.884Z,14.07
2019-02-09T18:51:45.276Z,12.20
2019-02-09T18:54:15.980Z,13.63
2019-02-09T18:56:47.057Z,10.73
2019-02-09T18:59:18.134Z,13.13
2019-02-09T19:01:49.419Z,15.43
2019-02-09T19:04:20.420Z,15.07
2019-02-09T19:06:51.894Z,13.00
2019-02-09T19:09:22.722Z,14.27
2019-02-09T19:11:53.803Z,19.17
2019-02-09T19:14:24.914Z,13.40
2019-02-09T19:16:55.696Z,12.73
2019-02-09T19:19:26.452Z,15.53
2019-02-09T19:21:57.225Z,12.90
2019-02-09T19:24:28.055Z,13.03
2019-02-09T19:26:59.044Z,19.47
2019-02-09T19:29:30.042Z,12.43
2019-02-09T19:32:01.079Z,15.70
2019-02-09T19:34:31.939Z,10.27
2019-02-09T19:37:02.705Z,14.03
2019-02-09T19:39:33.739Z,12.70
2019-02-09T19:42:05.219Z,9.63
2019-02-09T19:44:36.279Z,14.03
2019-02-09T19:47:07.141Z,14.40
2019-02-09T19:49:37.951Z,11.90
2019-02-09T19:52:09.627Z,15.13
2019-02-09T19:54:40.717Z,16.33
2019-02-09T19:57:11.707Z,18.43
2019-02-09T19:59:42.480Z,12.37
2019-02-09T20:02:13.334Z,15.30
2019-02-09T20:04:44.385Z,12.50
2019-02-09T20:07:15.939Z,14.40
2019-02-09T20:09:46.700Z,11.60
2019-02-09T20:12:18.797Z,17.10
2019-02-09T20:14:49.645Z,16.33
2019-02-09T20:17:21.375Z,14.97
2019-02-09T20:19:52.354Z,14.67
2019-02-09T20:22:23.223Z,13.03
2019-02-09T20:24:54.139Z,13.53
2019-02-09T20:27:25.130Z,14.23
2019-02-09T20:29:56.152Z,13.20
2019-02-09T20:32:27.197Z,12.53
2019-02-09T20:34:58.024Z,15.53
2019-02-09T20:37:28.858Z,11.97
2019-02-09T20:39:59.607Z,16.87
2019-02-09T20:42:30.988Z,9.40
2019-02-09T20:45:01.755Z,14.67
2019-02-09T20:47:32.982Z,16.10
2019-02-09T20:50:05.073Z,15.93
2019-02-09T20:52:36.442Z,12.73
2019-02-09T20:55:08.149Z,12.47
2019-02-09T20:57:39.134Z,12.47
2019-02-09T21:00:18.158Z,12.10
2019-02-09T21:02:45.765Z,11.53
2019-02-09T21:05:16.778Z,14.00
2019-02-09T21:07:47.918Z,19.03
2019-02-09T21:10:26.796Z,15.77
2019-02-09T21:12:57.868Z,13.83
2019-02-09T21:15:29.162Z,15.67
2019-02-09T21:18:01.945Z,15.50
2019-02-09T21:20:33.066Z,14.47
2019-02-09T21:23:04.306Z,18.10
2019-02-09T21:25:36.783Z,16.60
2019-02-09T21:28:08.219Z,16.20
2019-02-09T21:30:39.635Z,14.67
2019-02-09T21:33:11.694Z,11.27
2019-02-09T21:35:44.146Z,17.70
2019-02-09T21:38:15.379Z,13.33
2019-02-09T21:40:47.103Z,13.53
2019-02-09T21:43:17.946Z,16.03
2019-02-09T21:45:48.773Z,16.57
2019-02-09T21:48:19.761Z,12.13
2019-02-09T21:50:50.512Z,11.37
2019-02-09T21:53:21.418Z,14.53
2019-02-09T21:55:52.159Z,16.00
2019-02-09T21:58:23.149Z,18.07
2019-02-09T22:00:53.970Z,14.13
2019-02-09T22:03:26.586Z,15.73
2019-02-09T22:05:57.655Z,16.43
2019-02-09T22:08:28.736Z,11.23
2019-02-09T22:10:59.718Z,13.97
2019-02-09T22:13:30.786Z,17.07
2019-02-09T22:16:01.853Z,10.63
2019-02-09T22:18:32.762Z,12.33
2019-02-09T22:21:04.745Z,16.97
2019-02-09T22:23:35.802Z,16.30
2019-02-09T22:26:13.011Z,12.90
2019-02-09T22:28:39.126Z,16.30
2019-02-09T22:31:10.006Z,15.30
2019-02-09T22:33:41.084Z,19.50
2019-02-09T22:36:12.144Z,19.77
2019-02-09T22:38:43.533Z,19.27
2019-02-09T22:41:14.287Z,13.37
2019-02-09T22:43:45.298Z,15.43
2019-02-09T22:46:16.067Z,15.07
2019-02-09T22:48:46.831Z,12.03
2019-02-09T22:51:17.930Z,12.00
2019-02-09T22:53:49.233Z,9.73
2019-02-09T22:56:20.242Z,12.93
2019-02-09T22:58:51.083Z,11.37
2019-02-09T23:01:41.024Z,12.23
2019-02-09T23:04:37.940Z,16.10
2019-02-09T23:07:20.522Z,11.87
2019-02-09T23:09:51.288Z,19.67
2019-02-09T23:12:22.357Z,17.97
2019-02-09T23:14:53.124Z,12.33
2019-02-09T23:17:24.127Z,11.00
2019-02-09T23:19:54.931Z,17.50
2019-02-09T23:22:26.014Z,14.67
2019-02-09T23:24:56.789Z,11.07
2019-02-09T23:27:27.607Z,15.10
2019-02-09T23:29:58.601Z,13.20
2019-02-09T23:32:29.834Z,12.63
2019-02-09T23:35:00.858Z,12.13
2019-02-09T23:37:32.117Z,12.03
2019-02-09T23:40:02.890Z,12.60
2019-02-09T23:42:33.646Z,9.70
2019-02-09T23:45:04.573Z,13.93
2019-02-09T23:47:35.569Z,14.27
2019-02-09T23:50:06.770Z,13.30
2019-02-09T23:52:37.545Z,17.47
2019-02-09T23:55:08.433Z,15.50
2019-02-09T23:57:39.432Z,13.83
